createdAt,value
2023-04-07T00:01:59.078Z,72.50
2023-04-07T00:04:27.481Z,73.45
2023-04-07T00:06:55.812Z,73.83
2023-04-07T00:09:24.351Z,73.32
2023-04-07T00:11:52.616Z,74.31
2023-04-07T00:14:20.773Z,73.33
2023-04-07T00:16:50.443Z,73.67
2023-04-07T00:19:19.008Z,73.74
2023-04-07T00:21:47.164Z,74.48
2023-04-07T00:24:20.987Z,74.38
2023-04-07T00:26:56.827Z,75.37
2023-04-07T00:29:25.114Z,74.70
2023-04-07T00:31:54.726Z,75.09
2023-04-07T00:34:22.850Z,75.77
2023-04-07T00:36:52.477Z,75.45
2023-04-07T00:39:21.720Z,76.09
2023-04-07T00:41:49.946Z,76.07
2023-04-07T00:44:18.168Z,76.14
2023-04-07T00:46:48.830Z,75.44
2023-04-07T00:49:18.976Z,76.69
2023-04-07T00:51:47.867Z,76.58
2023-04-07T00:54:16.580Z,76.87
2023-04-07T00:56:44.700Z,77.20
2023-04-07T00:59:13.426Z,77.16
2023-04-07T01:01:47.557Z,76.76
2023-04-07T01:04:28.042Z,76.98
2023-04-07T01:07:00.466Z,75.99
2023-04-07T01:09:39.615Z,75.91
2023-04-07T01:12:16.927Z,77.52
2023-04-07T01:14:52.079Z,78.12
2023-04-07T01:17:43.776Z,78.09
2023-04-07T01:20:17.479Z,78.15
2023-04-07T01:22:49.616Z,77.14
2023-04-07T01:25:39.747Z,77.36
2023-04-07T01:28:25.754Z,76.70
2023-04-07T01:30:58.229Z,76.76
2023-04-07T01:33:30.436Z,77.22
2023-04-07T01:36:02.234Z,77.67
2023-04-07T01:38:31.405Z,78.43
2023-04-07T01:41:00.436Z,78.74
2023-04-07T01:43:29.846Z,79.35
2023-04-07T01:46:00.776Z,79.40
2023-04-07T01:48:29.029Z,79.27
2023-04-07T01:50:57.978Z,79.47
2023-04-07T01:53:27.135Z,80.17
2023-04-07T01:55:56.133Z,79.88
2023-04-07T01:58:25.827Z,79.74
2023-04-07T02:00:54.083Z,80.08
2023-04-07T02:03:32.599Z,79.50
2023-04-07T02:06:08.586Z,79.95
2023-04-07T02:08:40.226Z,80.63
2023-04-07T02:11:09.568Z,80.38
2023-04-07T02:13:39.780Z,80.60
2023-04-07T02:16:11.780Z,80.09
2023-04-07T02:18:43.015Z,80.21
2023-04-07T02:21:13.196Z,79.37
2023-04-07T02:23:41.328Z,80.29
2023-04-07T02:26:09.582Z,80.52
2023-04-07T02:28:37.617Z,79.93
2023-04-07T02:31:05.955Z,80.12
2023-04-07T02:33:34.027Z,79.58
2023-04-07T02:36:03.644Z,79.43
2023-04-07T02:38:32.053Z,79.48
2023-04-07T02:41:00.462Z,79.18
2023-04-07T02:43:31.062Z,79.50
2023-04-07T02:45:59.249Z,79.07
2023-04-07T02:48:27.579Z,79.17
2023-04-07T02:50:55.679Z,78.92
2023-04-07T02:53:25.348Z,77.81
2023-04-07T02:55:53.627Z,78.66
2023-04-07T02:58:21.907Z,79.25
2023-04-07T03:00:50.904Z,79.89
2023-04-07T03:03:24.622Z,81.02
2023-04-07T03:06:04.095Z,81.16
2023-04-07T03:08:34.624Z,80.84
2023-04-07T03:11:03.193Z,81.34
2023-04-07T03:13:32.351Z,81.76
2023-04-07T03:16:00.664Z,81.75
2023-04-07T03:18:34.148Z,81.23
2023-04-07T03:21:03.101Z,80.93
2023-04-07T03:23:32.267Z,81.08
2023-04-07T03:26:02.685Z,80.77
2023-04-07T03:28:35.399Z,81.19
2023-04-07T03:31:03.905Z,80.99
2023-04-07T03:33:32.255Z,79.42
2023-04-07T03:36:00.606Z,80.49
2023-04-07T03:38:29.704Z,79.89
2023-04-07T03:41:03.650Z,80.50
2023-04-07T03:43:32.298Z,79.61
2023-04-07T03:46:02.825Z,79.65
2023-04-07T03:48:31.457Z,80.19
2023-04-07T03:51:05.341Z,79.74
2023-04-07T03:53:34.152Z,80.06
2023-04-07T03:56:12.521Z,79.27
2023-04-07T03:58:49.010Z,80.39
2023-04-07T04:01:24.869Z,80.81
2023-04-07T04:03:53.303Z,81.17
2023-04-07T04:06:27.945Z,80.10
2023-04-07T04:09:03.181Z,79.98
2023-04-07T04:11:36.588Z,79.21
2023-04-07T04:14:06.676Z,78.23
2023-04-07T04:16:37.279Z,78.81
2023-04-07T04:19:11.796Z,79.13
2023-04-07T04:21:39.992Z,76.63
2023-04-07T04:24:09.341Z,78.82
2023-04-07T04:26:40.143Z,80.76
2023-04-07T04:29:13.048Z,81.43
2023-04-07T04:31:43.704Z,81.22
2023-04-07T04:34:12.633Z,81.73
2023-04-07T04:36:41.791Z,81.80
2023-04-07T04:39:10.214Z,81.74
2023-04-07T04:41:40.967Z,80.63
2023-04-07T04:44:10.821Z,81.27
2023-04-07T04:46:41.787Z,81.15
2023-04-07T04:49:10.022Z,81.72
2023-04-07T04:51:38.245Z,80.99
2023-04-07T04:54:13.994Z,81.99
2023-04-07T04:56:43.982Z,81.45
2023-04-07T04:59:12.571Z,81.59
2023-04-07T05:01:56.843Z,80.87
2023-04-07T05:04:25.351Z,80.57
2023-04-07T05:07:01.828Z,81.18
2023-04-07T05:09:32.541Z,81.94
2023-04-07T05:12:02.650Z,80.48
2023-04-07T05:14:35.149Z,80.09
2023-04-07T05:17:07.156Z,78.33
2023-04-07T05:19:35.547Z,78.55
2023-04-07T05:22:12.071Z,79.60
2023-04-07T05:24:47.544Z,79.67
2023-04-07T05:27:17.430Z,79.74
2023-04-07T05:29:49.650Z,80.98
2023-04-07T05:32:26.022Z,80.97
2023-04-07T05:34:54.798Z,80.45
2023-04-07T05:37:24.045Z,78.94
2023-04-07T05:39:52.508Z,77.91
2023-04-07T05:42:21.940Z,77.75
2023-04-07T05:44:53.044Z,78.32
2023-04-07T05:47:23.421Z,76.79
2023-04-07T05:49:52.442Z,75.71
2023-04-07T05:52:20.746Z,74.04
2023-04-07T05:54:56.521Z,73.83
2023-04-07T05:57:30.130Z,73.81
2023-04-07T06:00:01.244Z,73.88
2023-04-07T06:02:30.868Z,72.61
2023-04-07T06:04:59.596Z,71.69
2023-04-07T06:07:27.812Z,70.64
2023-04-07T06:09:56.202Z,70.03
2023-04-07T06:12:24.362Z,69.04
2023-04-07T06:14:55.342Z,68.66
2023-04-07T06:17:23.697Z,68.91
2023-04-07T06:19:51.932Z,69.08
2023-04-07T06:22:20.176Z,67.76
2023-04-07T06:24:48.433Z,65.49
2023-04-07T06:27:17.221Z,63.94
2023-04-07T06:29:49.185Z,63.33
2023-04-07T06:32:19.104Z,64.13
2023-04-07T06:34:47.472Z,63.47
2023-04-07T06:37:17.153Z,61.43
2023-04-07T06:39:45.743Z,59.77
2023-04-07T06:42:13.904Z,58.38
2023-04-07T06:44:51.231Z,57.43
2023-04-07T06:47:21.464Z,58.28
2023-04-07T06:49:49.683Z,56.73
2023-04-07T06:52:17.864Z,54.82
2023-04-07T06:54:46.075Z,53.83
2023-04-07T06:57:14.934Z,54.70
2023-04-07T06:59:43.164Z,53.43
2023-04-07T07:02:11.367Z,51.93
2023-04-07T07:04:41.052Z,50.54
2023-04-07T07:07:09.252Z,52.28
2023-04-07T07:09:37.457Z,49.62
2023-04-07T07:12:06.451Z,49.12
2023-04-07T07:14:34.742Z,48.98
2023-04-07T07:17:02.901Z,47.00
2023-04-07T07:19:31.120Z,45.57
2023-04-07T07:22:00.967Z,45.22
2023-04-07T07:24:29.638Z,43.15
2023-04-07T07:26:58.437Z,42.02
2023-04-07T07:29:27.337Z,39.27
2023-04-07T07:31:56.253Z,38.90
2023-04-07T07:34:24.660Z,38.62
2023-04-07T07:36:52.987Z,37.49
2023-04-07T07:39:22.591Z,36.68
2023-04-07T07:41:51.607Z,35.22
2023-04-07T07:44:21.359Z,34.64
2023-04-07T07:46:49.635Z,32.50
2023-04-07T07:49:18.013Z,35.13
2023-04-07T07:51:46.808Z,35.52
2023-04-07T07:54:15.091Z,33.51
2023-04-07T07:56:44.655Z,32.84
2023-04-07T07:59:13.057Z,33.85
2023-04-07T08:01:41.237Z,33.58
2023-04-07T08:04:09.450Z,30.48
2023-04-07T08:06:38.008Z,30.06
2023-04-07T08:09:06.377Z,30.45
2023-04-07T08:11:34.690Z,28.44
2023-04-07T08:14:04.428Z,26.42
2023-04-07T08:16:32.748Z,26.20
2023-04-07T08:19:01.059Z,25.47
2023-04-07T08:21:29.883Z,25.04
2023-04-07T08:23:58.091Z,24.13
2023-04-07T08:26:26.251Z,20.69
2023-04-07T08:28:56.184Z,22.55
2023-04-07T08:31:26.378Z,20.56
2023-04-07T08:33:58.219Z,18.79
2023-04-07T08:36:28.192Z,16.81
2023-04-07T08:38:56.977Z,16.61
2023-04-07T08:41:32.215Z,16.36
2023-04-07T08:44:02.823Z,16.93
2023-04-07T08:46:33.102Z,18.00
2023-04-07T08:49:02.832Z,18.63
2023-04-07T08:51:32.940Z,19.51
2023-04-07T08:54:07.096Z,19.63
2023-04-07T08:56:35.559Z,20.20
2023-04-07T08:59:04.267Z,20.30
2023-04-07T09:01:36.136Z,21.02
2023-04-07T09:04:05.983Z,21.09
2023-04-07T09:06:34.702Z,20.31
2023-04-07T09:09:03.648Z,20.68
2023-04-07T09:11:35.888Z,22.88
2023-04-07T09:14:04.297Z,23.39
2023-04-07T09:16:34.229Z,23.06
2023-04-07T09:19:02.601Z,23.63
2023-04-07T09:21:49.219Z,23.74
2023-04-07T09:24:25.684Z,22.63
2023-04-07T09:27:10.407Z,22.40
2023-04-07T09:29:38.963Z,22.70
2023-04-07T09:32:08.735Z,22.52
2023-04-07T09:34:40.845Z,22.10
2023-04-07T09:37:10.783Z,21.50
2023-04-07T09:39:51.449Z,20.37
2023-04-07T09:42:19.732Z,19.49
2023-04-07T09:44:48.435Z,19.41
2023-04-07T09:47:18.141Z,20.96
2023-04-07T09:49:53.945Z,22.37
2023-04-07T09:52:24.468Z,23.99
2023-04-07T09:54:52.983Z,23.00
2023-04-07T09:57:22.846Z,24.73
2023-04-07T09:59:54.303Z,24.58
2023-04-07T10:02:26.960Z,26.24
2023-04-07T10:04:55.296Z,21.50
2023-04-07T10:07:23.715Z,21.89
2023-04-07T10:09:51.981Z,21.20
2023-04-07T10:12:20.794Z,19.01
2023-04-07T10:14:49.385Z,18.87
2023-04-07T10:17:20.833Z,18.68
2023-04-07T10:19:51.972Z,17.35
2023-04-07T10:22:20.865Z,17.71
2023-04-07T10:24:55.894Z,18.82
2023-04-07T10:27:32.360Z,17.16
2023-04-07T10:30:01.584Z,15.65
2023-04-07T10:32:30.477Z,15.08
2023-04-07T10:35:03.807Z,16.03
2023-04-07T10:37:34.533Z,16.71
2023-04-07T10:40:33.113Z,16.43
2023-04-07T10:43:01.566Z,17.88
2023-04-07T10:45:59.981Z,16.77
2023-04-07T10:48:33.304Z,15.46
2023-04-07T10:51:19.390Z,14.18
2023-04-07T10:54:29.069Z,16.24
2023-04-07T10:57:12.356Z,13.58
2023-04-07T10:59:43.490Z,13.80
2023-04-07T11:02:36.081Z,12.57
2023-04-07T11:05:04.974Z,14.48
2023-04-07T11:07:52.553Z,14.52
2023-04-07T11:10:22.237Z,15.22
2023-04-07T11:13:01.198Z,13.70
2023-04-07T11:15:33.127Z,13.39
2023-04-07T11:18:08.952Z,13.49
2023-04-07T11:20:45.597Z,13.41
2023-04-07T11:23:16.724Z,13.26
2023-04-07T11:25:46.771Z,14.02
2023-04-07T11:28:15.903Z,13.89
2023-04-07T11:30:49.865Z,14.33
2023-04-07T11:33:19.471Z,15.52
2023-04-07T11:35:52.393Z,14.45
2023-04-07T11:38:22.612Z,13.19
2023-04-07T11:40:50.925Z,15.89
2023-04-07T11:43:21.002Z,17.18
2023-04-07T11:46:04.610Z,17.76
2023-04-07T11:48:34.274Z,17.86
2023-04-07T11:51:03.615Z,16.95
2023-04-07T11:53:35.349Z,15.39
2023-04-07T11:56:05.386Z,15.49
2023-04-07T11:58:33.998Z,15.93
2023-04-07T12:01:06.763Z,14.69
2023-04-07T12:03:37.221Z,16.19
2023-04-07T12:06:05.937Z,15.67
2023-04-07T12:08:45.495Z,14.70
2023-04-07T12:11:13.576Z,13.17
2023-04-07T12:13:42.689Z,16.21
2023-04-07T12:16:10.925Z,13.39
2023-04-07T12:18:39.019Z,12.83
2023-04-07T12:21:07.382Z,13.14
2023-04-07T12:23:35.622Z,15.21
2023-04-07T12:26:05.380Z,15.77
2023-04-07T12:28:33.580Z,15.47
2023-04-07T12:31:01.775Z,13.90
2023-04-07T12:33:29.817Z,12.58
2023-04-07T12:35:58.612Z,16.65
2023-04-07T12:38:27.163Z,14.00
2023-04-07T12:40:56.124Z,14.12
2023-04-07T12:43:26.024Z,15.95
2023-04-07T12:45:54.107Z,15.02
2023-04-07T12:48:22.424Z,16.08
2023-04-07T12:50:50.922Z,16.36
2023-04-07T12:53:19.414Z,15.90
2023-04-07T12:55:50.343Z,18.61
2023-04-07T12:58:19.244Z,16.60
2023-04-07T13:00:48.776Z,15.58
2023-04-07T13:03:17.055Z,14.68
2023-04-07T13:05:45.392Z,13.83
2023-04-07T13:08:13.480Z,14.65
2023-04-07T13:10:41.661Z,15.74
2023-04-07T13:13:09.881Z,17.45
2023-04-07T13:15:38.112Z,18.57
2023-04-07T13:18:08.338Z,15.61
2023-04-07T13:20:36.662Z,16.09
2023-04-07T13:23:08.312Z,18.14
2023-04-07T13:25:38.386Z,16.91
2023-04-07T13:28:06.807Z,16.64
2023-04-07T13:30:35.410Z,14.28
2023-04-07T13:33:03.654Z,15.01
2023-04-07T13:35:36.009Z,15.16
2023-04-07T13:38:04.401Z,16.69
2023-04-07T13:40:32.514Z,17.26
2023-04-07T13:43:01.068Z,18.45
2023-04-07T13:45:29.275Z,20.83
2023-04-07T13:47:57.417Z,18.39
2023-04-07T13:50:25.931Z,19.32
2023-04-07T13:52:55.704Z,22.17
2023-04-07T13:55:23.866Z,21.32
2023-04-07T13:57:52.012Z,21.17
2023-04-07T14:00:20.916Z,20.66
2023-04-07T14:02:49.712Z,21.71
2023-04-07T14:05:17.998Z,22.97
2023-04-07T14:07:48.063Z,24.79
2023-04-07T14:10:17.865Z,23.31
2023-04-07T14:12:46.272Z,23.32
2023-04-07T14:15:15.992Z,21.11
2023-04-07T14:17:45.186Z,23.23
2023-04-07T14:20:13.499Z,23.16
2023-04-07T14:22:41.711Z,24.11
2023-04-07T14:25:10.103Z,24.28
2023-04-07T14:27:39.679Z,24.52
2023-04-07T14:30:08.896Z,24.79
2023-04-07T14:32:37.191Z,25.85
2023-04-07T14:35:05.723Z,26.12
2023-04-07T14:37:36.234Z,26.78
2023-04-07T14:40:05.231Z,26.49
2023-04-07T14:42:33.610Z,27.02
2023-04-07T14:45:03.103Z,27.39
2023-04-07T14:47:31.644Z,28.07
2023-04-07T14:49:59.940Z,28.07
2023-04-07T14:52:28.109Z,27.60
2023-04-07T14:54:57.904Z,28.61
2023-04-07T14:57:27.818Z,29.11
2023-04-07T14:59:56.014Z,29.87
2023-04-07T15:02:25.921Z,29.15
2023-04-07T15:04:54.317Z,29.59
2023-04-07T15:07:22.614Z,29.78
2023-04-07T15:09:50.956Z,28.89
2023-04-07T15:12:19.052Z,28.90
2023-04-07T15:14:47.427Z,29.68
2023-04-07T15:17:15.725Z,29.63
2023-04-07T15:19:45.556Z,29.93
2023-04-07T15:22:13.699Z,29.93
2023-04-07T15:24:41.944Z,30.96
2023-04-07T15:27:10.937Z,30.29
2023-04-07T15:29:39.066Z,31.09
2023-04-07T15:32:07.585Z,31.25
2023-04-07T15:34:35.881Z,31.39
2023-04-07T15:37:05.864Z,31.66
2023-04-07T15:39:34.087Z,31.06
2023-04-07T15:42:02.333Z,31.85
2023-04-07T15:44:33.554Z,31.82
2023-04-07T15:47:01.966Z,31.71
2023-04-07T15:49:30.448Z,32.50
2023-04-07T15:51:58.707Z,32.63
2023-04-07T15:54:28.622Z,32.69
2023-04-07T15:56:56.757Z,32.79
2023-04-07T15:59:25.101Z,33.62
2023-04-07T16:01:54.398Z,33.77
2023-04-07T16:04:22.825Z,33.92
2023-04-07T16:06:51.069Z,34.76
2023-04-07T16:09:19.250Z,35.28
2023-04-07T16:11:48.859Z,36.54
2023-04-07T16:14:17.101Z,36.61
2023-04-07T16:16:45.548Z,38.01
2023-04-07T16:19:14.773Z,38.57
2023-04-07T16:21:42.950Z,38.82
2023-04-07T16:24:11.290Z,39.38
2023-04-07T16:26:39.592Z,40.18
2023-04-07T16:29:09.293Z,40.24
2023-04-07T16:31:37.624Z,40.23
2023-04-07T16:34:05.837Z,40.94
2023-04-07T16:36:34.021Z,41.57
2023-04-07T16:39:02.266Z,41.35
2023-04-07T16:41:30.492Z,42.52
2023-04-07T16:43:58.714Z,42.60
2023-04-07T16:46:30.667Z,42.89
2023-04-07T16:48:59.075Z,42.50
2023-04-07T16:51:28.374Z,42.42
2023-04-07T16:53:56.725Z,41.69
2023-04-07T16:56:26.090Z,42.26
2023-04-07T16:58:54.285Z,42.14
2023-04-07T17:01:22.495Z,42.42
2023-04-07T17:03:52.690Z,42.23
2023-04-07T17:06:21.216Z,43.10
2023-04-07T17:08:49.806Z,42.61
2023-04-07T17:11:18.117Z,43.50
2023-04-07T17:13:47.886Z,43.33
2023-04-07T17:16:16.444Z,43.65
2023-04-07T17:18:44.793Z,43.41
2023-04-07T17:21:15.497Z,43.75
2023-04-07T17:23:43.806Z,44.30
2023-04-07T17:26:12.009Z,45.11
2023-04-07T17:28:40.118Z,44.78
2023-04-07T17:31:08.310Z,45.12
2023-04-07T17:33:36.576Z,45.22
2023-04-07T17:36:05.006Z,45.46
2023-04-07T17:38:34.633Z,45.27
2023-04-07T17:41:02.997Z,46.13
2023-04-07T17:43:31.856Z,46.34
2023-04-07T17:46:00.026Z,45.95
2023-04-07T17:48:28.169Z,46.39
2023-04-07T17:50:56.388Z,46.06
2023-04-07T17:53:24.782Z,46.51
2023-04-07T17:55:54.290Z,46.59
2023-04-07T17:58:22.488Z,47.07
2023-04-07T18:00:50.609Z,47.48
2023-04-07T18:03:19.643Z,48.03
2023-04-07T18:05:49.200Z,47.18
2023-04-07T18:08:17.385Z,48.16
2023-04-07T18:10:45.601Z,47.92
2023-04-07T18:13:15.392Z,47.31
2023-04-07T18:15:43.694Z,48.34
2023-04-07T18:18:11.951Z,48.71
2023-04-07T18:20:40.301Z,49.16
2023-04-07T18:23:09.703Z,48.94
2023-04-07T18:25:37.924Z,48.75
2023-04-07T18:28:06.192Z,48.94
2023-04-07T18:30:35.897Z,48.47
2023-04-07T18:33:04.197Z,49.39
2023-04-07T18:35:32.994Z,50.04
2023-04-07T18:38:01.256Z,50.12
2023-04-07T18:40:32.763Z,50.05
2023-04-07T18:43:01.307Z,50.68
2023-04-07T18:45:29.435Z,50.35
2023-04-07T18:47:59.377Z,50.97
2023-04-07T18:50:27.918Z,50.64
2023-04-07T18:52:56.070Z,50.69
2023-04-07T18:55:24.495Z,49.91
2023-04-07T18:57:52.691Z,49.93
2023-04-07T19:00:21.023Z,49.91
2023-04-07T19:02:49.494Z,50.38
2023-04-07T19:05:22.349Z,50.73
2023-04-07T19:07:52.817Z,50.43
2023-04-07T19:10:21.496Z,51.35
2023-04-07T19:12:49.753Z,50.59
2023-04-07T19:15:18.045Z,51.06
2023-04-07T19:17:46.715Z,51.74
2023-04-07T19:20:15.152Z,51.88
2023-04-07T19:22:45.322Z,52.34
2023-04-07T19:25:13.661Z,51.87
2023-04-07T19:27:42.162Z,52.01
2023-04-07T19:30:11.458Z,53.08
2023-04-07T19:32:40.134Z,53.67
2023-04-07T19:35:09.108Z,52.79
2023-04-07T19:37:38.161Z,53.21
2023-04-07T19:40:09.399Z,51.62
2023-04-07T19:42:39.281Z,51.24
2023-04-07T19:45:08.441Z,52.03
2023-04-07T19:47:37.004Z,52.41
2023-04-07T19:50:06.415Z,53.71
2023-04-07T19:52:34.581Z,54.40
2023-04-07T19:55:05.960Z,54.87
2023-04-07T19:57:36.014Z,55.92
2023-04-07T20:00:04.653Z,55.27
2023-04-07T20:02:33.024Z,55.53
2023-04-07T20:05:01.835Z,55.98
2023-04-07T20:07:31.213Z,56.67
2023-04-07T20:10:00.077Z,55.73
2023-04-07T20:12:28.295Z,56.70
2023-04-07T20:14:57.793Z,53.58
2023-04-07T20:17:26.195Z,53.38
2023-04-07T20:19:55.334Z,53.46
2023-04-07T20:22:24.352Z,53.58
2023-04-07T20:24:52.567Z,53.62
2023-04-07T20:27:20.805Z,54.48
2023-04-07T20:29:49.049Z,54.84
2023-04-07T20:32:19.483Z,54.67
2023-04-07T20:34:48.400Z,55.64
2023-04-07T20:37:16.530Z,55.45
2023-04-07T20:39:44.683Z,56.30
2023-04-07T20:42:12.883Z,55.52
2023-04-07T20:44:41.121Z,55.43
2023-04-07T20:47:09.475Z,55.65
2023-04-07T20:49:39.747Z,57.13
2023-04-07T20:52:08.490Z,56.58
2023-04-07T20:54:37.168Z,57.19
2023-04-07T20:57:05.504Z,57.07
2023-04-07T20:59:33.977Z,56.22
2023-04-07T21:02:02.468Z,55.58
2023-04-07T21:04:31.002Z,57.00
2023-04-07T21:07:00.700Z,56.68
2023-04-07T21:09:29.099Z,58.62
2023-04-07T21:11:57.270Z,59.09
2023-04-07T21:14:25.515Z,60.32
2023-04-07T21:16:53.783Z,60.10
2023-04-07T21:19:22.330Z,61.85
2023-04-07T21:21:50.555Z,62.43
2023-04-07T21:24:20.196Z,62.50
2023-04-07T21:26:48.346Z,62.45
2023-04-07T21:29:16.818Z,63.76
2023-04-07T21:31:44.994Z,65.28
2023-04-07T21:34:13.211Z,65.70
2023-04-07T21:36:41.465Z,66.02
2023-04-07T21:39:09.800Z,66.65
2023-04-07T21:41:39.404Z,66.58
2023-04-07T21:44:10.113Z,67.14
2023-04-07T21:46:38.955Z,65.76
2023-04-07T21:49:07.392Z,66.05
2023-04-07T21:51:35.535Z,66.83
2023-04-07T21:54:03.755Z,67.45
2023-04-07T21:56:31.998Z,68.27
2023-04-07T21:59:01.463Z,69.03
2023-04-07T22:01:29.688Z,68.44
2023-04-07T22:03:58.150Z,67.77
2023-04-07T22:06:26.773Z,67.44
2023-04-07T22:09:01.216Z,68.23
2023-04-07T22:11:30.105Z,69.12
2023-04-07T22:13:58.358Z,69.16
2023-04-07T22:16:28.317Z,69.45
2023-04-07T22:18:56.353Z,68.03
2023-04-07T22:21:25.334Z,67.87
2023-04-07T22:23:53.535Z,68.11
2023-04-07T22:26:21.917Z,68.84
2023-04-07T22:28:51.775Z,69.14
2023-04-07T22:31:20.280Z,69.81
2023-04-07T22:33:49.747Z,69.39
2023-04-07T22:36:17.917Z,68.44
2023-04-07T22:38:46.055Z,68.68
2023-04-07T22:41:14.216Z,68.29
2023-04-07T22:43:42.455Z,67.81
2023-04-07T22:46:10.754Z,68.46
2023-04-07T22:48:38.857Z,69.39
2023-04-07T22:51:08.736Z,69.18
2023-04-07T22:53:36.954Z,69.19
2023-04-07T22:56:05.297Z,70.63
2023-04-07T22:58:33.452Z,69.91
2023-04-07T23:01:01.940Z,71.04
2023-04-07T23:03:30.335Z,70.99
2023-04-07T23:05:59.629Z,70.44
2023-04-07T23:08:29.385Z,71.87
2023-04-07T23:10:57.585Z,72.82
2023-04-07T23:13:25.735Z,71.60
2023-04-07T23:15:53.961Z,70.54
2023-04-07T23:18:22.021Z,69.76
2023-04-07T23:20:53.337Z,69.91
2023-04-07T23:23:21.789Z,69.81
2023-04-07T23:25:51.355Z,69.68
2023-04-07T23:28:19.549Z,68.90
2023-04-07T23:30:47.763Z,69.55
2023-04-07T23:33:15.927Z,68.39
2023-04-07T23:35:44.170Z,70.18
2023-04-07T23:38:12.353Z,70.22
2023-04-07T23:40:41.054Z,69.96
2023-04-07T23:43:10.805Z,69.71
2023-04-07T23:45:38.995Z,69.83
2023-04-07T23:48:07.668Z,71.55
2023-04-07T23:50:36.328Z,72.87
2023-04-07T23:53:04.630Z,71.29
2023-04-07T23:55:32.708Z,72.35
2023-04-07T23:58:00.863Z,72.56
